createdAt,value
2019-02-24T02:06:31.438Z,27.32
2019-02-24T02:07:34.092Z,27.55
2019-02-24T02:09:20.708Z,27.13
2019-02-24T02:10:23.981Z,27.01
2019-02-24T02:11:27.250Z,26.63
2019-02-24T02:12:30.566Z,26.28
2019-02-24T02:13:33.835Z,26.06
2019-02-24T02:14:37.289Z,26.11
2019-02-24T02:15:40.558Z,25.89
2019-02-24T02:16:44.262Z,25.95
2019-02-24T02:17:55.175Z,25.96
2019-02-24T02:18:58.488Z,26.30
2019-02-24T02:20:01.804Z,25.98
2019-02-24T02:21:05.069Z,26.27
2019-02-24T02:22:08.337Z,26.26
2019-02-24T02:23:11.604Z,26.36
2019-02-24T02:24:14.968Z,26.53
2019-02-24T02:25:18.235Z,26.64
2019-02-24T02:26:21.601Z,26.52
2019-02-24T02:27:24.994Z,26.49
2019-02-24T02:28:28.476Z,26.52
2019-02-24T02:29:31.795Z,26.47
2019-02-24T02:30:35.069Z,26.33
2019-02-24T02:31:38.333Z,26.50
2019-02-24T02:32:42.165Z,26.35
2019-02-24T02:33:45.507Z,26.59
2019-02-24T02:34:48.930Z,26.63
2019-02-24T02:35:52.195Z,26.67
2019-02-24T02:36:55.563Z,26.56
2019-02-24T02:37:58.829Z,26.54
2019-02-24T02:39:02.104Z,26.49
2019-02-24T02:40:10.714Z,26.34
2019-02-24T02:41:14.035Z,26.39
2019-02-24T02:42:17.308Z,26.44
2019-02-24T02:43:20.665Z,26.16
2019-02-24T02:44:23.969Z,26.34
2019-02-24T02:45:27.275Z,26.50
2019-02-24T02:46:30.551Z,26.59
2019-02-24T02:47:33.835Z,26.68
2019-02-24T02:48:37.108Z,26.53
2019-02-24T02:49:40.402Z,26.48
2019-02-24T02:50:43.705Z,26.49
2019-02-24T02:51:46.958Z,26.41
2019-02-24T02:52:50.248Z,26.36
2019-02-24T02:53:53.633Z,25.80
2019-02-24T02:54:56.903Z,25.59
2019-02-24T02:56:00.447Z,25.77
2019-02-24T02:57:03.727Z,26.04
2019-02-24T02:58:07.065Z,25.62
2019-02-24T02:59:10.351Z,25.58
2019-02-24T03:00:19.877Z,25.92
2019-02-24T03:01:23.159Z,25.87
2019-02-24T03:02:26.428Z,26.04
2019-02-24T03:03:29.691Z,25.48
2019-02-24T03:04:32.961Z,23.83
2019-02-24T03:05:36.227Z,22.95
